createdAt,value
2022-12-31T00:12:47.622Z,78
2022-12-31T00:41:57.337Z,75
2022-12-31T01:11:17.183Z,73
2022-12-31T01:40:29.946Z,72
2022-12-31T02:09:50.210Z,72
2022-12-31T02:39:05.801Z,73
2022-12-31T03:08:23.017Z,73
2022-12-31T03:37:35.768Z,74
2022-12-31T04:06:54.470Z,75
2022-12-31T04:36:08.880Z,74
2022-12-31T05:05:26.098Z,73
2022-12-31T05:34:34.740Z,72
2022-12-31T06:03:49.037Z,71
2022-12-31T06:32:50.432Z,69
2022-12-31T07:01:58.570Z,68
2022-12-31T07:31:08.095Z,67
2022-12-31T08:00:18.436Z,66
2022-12-31T08:29:22.965Z,64
2022-12-31T08:58:46.417Z,64
2022-12-31T09:27:55.986Z,63
2022-12-31T09:57:15.588Z,63
2022-12-31T10:26:26.717Z,61
2022-12-31T10:55:41.715Z,58
2022-12-31T11:25:07.594Z,55
2022-12-31T11:54:23.084Z,54
2022-12-31T12:23:44.802Z,53
2022-12-31T12:53:08.884Z,54
2022-12-31T13:22:28.858Z,55
2022-12-31T13:51:51.181Z,54
2022-12-31T14:21:05.114Z,56
2022-12-31T14:50:20.795Z,56
2022-12-31T15:19:19.999Z,56
2022-12-31T15:48:29.660Z,55
2022-12-31T16:17:52.328Z,55
2022-12-31T16:47:05.331Z,56
2022-12-31T17:16:13.921Z,57
2022-12-31T17:45:29.574Z,57
2022-12-31T18:14:51.642Z,58
2022-12-31T18:44:11.614Z,58
2022-12-31T19:13:28.120Z,59
2022-12-31T19:42:47.585Z,58
2022-12-31T20:12:07.250Z,58
2022-12-31T20:41:30.066Z,58
2022-12-31T21:10:52.726Z,60
2022-12-31T21:40:07.569Z,59
2022-12-31T22:09:28.108Z,60
2022-12-31T22:38:43.339Z,58
2022-12-31T23:07:52.100Z,58
2022-12-31T23:37:03.708Z,58
